CW6538 Cattolica IT current weather conditions

sailwx.info

Wind from 034 at 10 knots gusting 19

Air temperature 2.8° C
Dewpoint -4.2° C

Last reported at 2018-Feb-25 13:09 UTC.
Time now 2018-Feb-25 14:03 UTC

Location: N 43°58' E 012°44'.
View on Google Maps.

See reports from other nearby stations

  
Tides and Currents Weather Stations Pressure Air Temp Water Temp Dewpoint Dewpoint Depression Visibility Wind Speed Wind Dir Waves Ship Positions
date/time (UTC)wind fromknots sea level pressurealtimeterstation pressurevisibilityair tempwater tempwave heightnotes
2018-Feb-25 13:09 034 10 gusting 19 2.8
2018-Feb-25 13:04 005 7 gusting 18 2.8
2018-Feb-25 12:59 017 11 gusting 19 2.8
2018-Feb-25 12:54 028 11 gusting 19 2.8
2018-Feb-25 12:49 036 284 gusting 284 2.8
2018-Feb-25 12:44 039 10 gusting 19 2.8
2018-Feb-25 12:39 009 11 gusting 19 2.8
2018-Feb-25 12:34 360 9 gusting 17 2.8
2018-Feb-25 12:29 021 7 gusting 17 2.8
2018-Feb-25 12:24 027 11 gusting 17 2.8
2018-Feb-25 12:19 341 8 2.8
2018-Feb-25 12:14 023 8 gusting 19 2.8
2018-Feb-25 12:09 036 10 gusting 19 2.8
2018-Feb-25 12:04 022 11 2.8
2018-Feb-25 11:59 019 12 gusting 20 2.8
2018-Feb-25 11:54 009 284 gusting 284 2.8
2018-Feb-25 11:49 049 10 gusting 21 3.3
2018-Feb-25 11:44 360 11 gusting 19 2.8
2018-Feb-25 11:39 046 12 gusting 19 2.8
2018-Feb-25 11:34 005 8 gusting 16 2.8
2018-Feb-25 11:29 040 10 gusting 17 2.8
2018-Feb-25 11:24 009 9 gusting 17 2.8
2018-Feb-25 11:14 024 10 gusting 17 2.8
2018-Feb-25 11:09 360 8 gusting 17 2.8
2018-Feb-25 10:59 005 9 gusting 15 2.8
2018-Feb-25 10:54 333 8 gusting 15 2.8
2018-Feb-25 10:49 338 10 gusting 18 2.8
2018-Feb-25 10:44 350 8 2.8
2018-Feb-25 10:39 017 9 gusting 16 3.3
2018-Feb-25 10:34 028 6 gusting 16 3.3
2018-Feb-25 10:29 054 10 gusting 16 3.3
2018-Feb-25 10:19 077 9 gusting 14 3.3
2018-Feb-25 10:14 015 5 gusting 15 2.8
2018-Feb-25 10:09 045 6 gusting 15 2.8
2018-Feb-25 10:04 005 9 gusting 15 2.8
2018-Feb-25 09:58 351 8 gusting 14 2.8
2018-Feb-25 09:44 005 6 gusting 12 2.8
2018-Feb-25 09:39 021 6 gusting 11 2.8
2018-Feb-25 09:34 034 6 gusting 16 2.8
2018-Feb-25 09:29 024 10 gusting 16 2.8
2018-Feb-25 09:19 022 8 gusting 15 2.8
2018-Feb-25 09:14 036 8 gusting 16 2.8
2018-Feb-25 09:08 026 8 gusting 18 2.8
2018-Feb-25 09:04 081 284 gusting 284 2.8
2018-Feb-25 08:59 044 9 gusting 21 2.8
2018-Feb-25 08:54 013 11 gusting 19 2.8
2018-Feb-25 08:49 039 11 gusting 20 2.8
2018-Feb-25 08:44 021 10 gusting 19 2.8
2018-Feb-25 08:39 057 8 gusting 18 2.8
2018-Feb-25 08:34 054 11 gusting 18 2.2
2018-Feb-25 08:29 025 6 gusting 15 2.2
2018-Feb-25 08:24 071 284 gusting 284 2.2
2018-Feb-25 08:19 044 7 gusting 13 2.2
2018-Feb-25 08:14 015 8 2.2
2018-Feb-25 08:09 066 8 gusting 15 2.2
2018-Feb-25 08:04 051 7 gusting 16 2.2
2018-Feb-25 07:59 046 284 gusting 284 2.2
2018-Feb-25 07:54 065 7 gusting 16 2.2
2018-Feb-25 07:49 040 7 2.2
2018-Feb-25 07:44 048 7 gusting 12 2.2
2018-Feb-25 07:39 020 7 gusting 13 2.2
2018-Feb-25 07:29 074 7 gusting 20 2.2
2018-Feb-25 07:24 067 12 gusting 18 2.8
2018-Feb-25 07:19 024 10 gusting 17 2.8
2018-Feb-25 07:14 019 7 gusting 17 2.8
2018-Feb-25 07:09 025 7 gusting 17 2.8
2018-Feb-25 07:04 037 8 gusting 14 2.8
2018-Feb-25 06:49 036 11 gusting 16 2.8
2018-Feb-25 06:44 032 9 gusting 19 2.8
2018-Feb-25 06:39 036 11 gusting 19 2.8
2018-Feb-25 06:34 032 284 gusting 284 3.3
2018-Feb-25 06:29 083 7 gusting 16 3.3
2018-Feb-25 06:24 067 8 gusting 15 3.3
2018-Feb-25 06:19 061 8 gusting 15 3.3
2018-Feb-25 06:14 067 8 gusting 19 3.3
2018-Feb-25 06:09 054 11 gusting 19 3.3
2018-Feb-25 06:03 031 8 gusting 19 3.3
2018-Feb-25 05:59 032 9 gusting 19 3.3
2018-Feb-25 05:54 013 11 gusting 19 3.3
2018-Feb-25 05:49 058 12 gusting 21 3.3
2018-Feb-25 05:44 053 12 gusting 21 3.3
2018-Feb-25 05:34 044 12 gusting 18 3.9
2018-Feb-25 05:29 046 10 gusting 17 3.9
2018-Feb-25 05:24 024 13 gusting 17 3.9
2018-Feb-25 05:19 090 8 gusting 17 3.9
2018-Feb-25 05:14 040 11 gusting 17 3.9
2018-Feb-25 05:09 039 9 gusting 16 3.9
2018-Feb-25 05:04 060 9 gusting 19 3.9
2018-Feb-25 04:59 080 11 gusting 19 3.9
2018-Feb-25 04:54 045 11 gusting 19 3.9
2018-Feb-25 04:49 049 10 gusting 15 3.9
2018-Feb-25 04:44 082 9 gusting 19 3.9
2018-Feb-25 04:39 058 7 gusting 15 3.9
2018-Feb-25 04:34 032 8 gusting 19 3.9
2018-Feb-25 04:29 049 9 gusting 19 3.9
2018-Feb-25 04:24 084 8 gusting 17 3.9
2018-Feb-25 04:19 028 6 gusting 15 4.4
2018-Feb-25 04:14 069 10 gusting 19 4.4
2018-Feb-25 04:09 063 9 gusting 19 4.4
2018-Feb-25 04:04 045 9 gusting 19 4.4
2018-Feb-25 03:59 087 8 gusting 15 4.4
2018-Feb-25 03:54 072 5 gusting 14 4.4
2018-Feb-25 03:49 090 6 gusting 14 4.4
2018-Feb-25 03:44 080 8 gusting 16 4.4
2018-Feb-25 03:39 057 8 gusting 16 3.9
2018-Feb-25 03:34 066 8 gusting 16 3.9
2018-Feb-25 03:29 061 7 gusting 15 3.9
2018-Feb-25 03:24 049 6 gusting 16 3.9
2018-Feb-25 03:19 042 9 gusting 16 4.4
2018-Feb-25 03:14 078 9 gusting 19 4.4
2018-Feb-25 03:08 082 9 gusting 19 4.4
2018-Feb-25 03:04 025 12 gusting 18 4.4
2018-Feb-25 02:59 038 9 gusting 20 4.4
2018-Feb-25 02:54 071 10 gusting 20 4.4
2018-Feb-25 02:49 051 10 gusting 17 4.4
2018-Feb-25 02:44 013 6 gusting 14 4.4
2018-Feb-25 02:39 092 9 gusting 14 4.4
2018-Feb-25 02:34 115 7 gusting 15 4.4
2018-Feb-25 02:29 055 4 gusting 16 4.4
2018-Feb-25 02:24 069 6 gusting 17 4.4
2018-Feb-25 02:19 043 5 gusting 15 4.4
2018-Feb-25 02:14 086 9 gusting 15 4.4
2018-Feb-25 02:09 052 8 gusting 15 4.4
2018-Feb-25 02:04 035 8 gusting 15 4.4
2018-Feb-25 01:59 089 6 gusting 16 5.0
2018-Feb-25 01:54 053 10 gusting 21 5.0
2018-Feb-25 01:49 012 9 gusting 21 5.0
2018-Feb-25 01:44 030 9 gusting 18 5.0
2018-Feb-25 01:39 047 9 gusting 18 5.0
2018-Feb-25 01:34 071 7 gusting 17 5.0
2018-Feb-25 01:29 051 8 gusting 15 5.0
2018-Feb-25 01:24 068 7 gusting 17 5.0
2018-Feb-25 01:19 079 8 gusting 17 5.0
2018-Feb-25 01:14 090 9 gusting 20 5.0
2018-Feb-25 01:08 019 9 gusting 21 5.0
2018-Feb-25 01:04 132 8 gusting 21 5.0
2018-Feb-25 00:59 071 11 gusting 18 5.0
2018-Feb-25 00:49 080 8 gusting 18 5.6
2018-Feb-25 00:44 060 12 gusting 18 5.6
2018-Feb-25 00:39 050 11 gusting 16 5.6
2018-Feb-25 00:34 057 10 gusting 19 5.6
2018-Feb-25 00:29 044 9 gusting 20 5.6
2018-Feb-25 00:24 063 11 gusting 20 5.6
2018-Feb-25 00:19 053 10 gusting 19 5.6
2018-Feb-25 00:14 085 8 gusting 19 6.1
2018-Feb-25 00:09 059 11 gusting 18 6.1
2018-Feb-25 00:04 070 10 gusting 19 6.1
2018-Feb-24 23:59 049 8 gusting 19 6.1
2018-Feb-24 23:54 064 11 gusting 16 6.1
2018-Feb-24 23:49 057 12 gusting 17 6.1
2018-Feb-24 23:44 109 11 gusting 19 6.1
2018-Feb-24 23:39 098 10 gusting 19 6.7
2018-Feb-24 23:34 081 10 gusting 20 6.7
2018-Feb-24 23:29 059 10 gusting 20 6.7
2018-Feb-24 23:24 080 9 gusting 18 6.7
2018-Feb-24 23:19 062 10 gusting 17 6.7
2018-Feb-24 23:09 117 11 gusting 17 6.7
2018-Feb-24 23:04 061 11 gusting 16 6.7
2018-Feb-24 22:54 096 11 gusting 19 7.2
2018-Feb-24 22:49 080 9 gusting 15 7.2
2018-Feb-24 22:44 106 8 gusting 15 7.2
2018-Feb-24 22:38 049 6 gusting 16 7.2
2018-Feb-24 22:34 057 9 gusting 16 7.2
2018-Feb-24 22:28 059 5 gusting 14 7.2
2018-Feb-24 22:24 082 8 gusting 14 7.2
2018-Feb-24 22:19 072 5 gusting 18 7.2
2018-Feb-24 22:14 026 7 gusting 18 7.2
2018-Feb-24 22:09 080 6 gusting 15 7.2
2018-Feb-24 22:04 039 9 gusting 15 7.2
2018-Feb-24 21:59 065 8 gusting 15 7.2
2018-Feb-24 21:54 067 6 gusting 13 7.2
2018-Feb-24 21:44 057 5 gusting 11 7.2
2018-Feb-24 21:39 067 6 gusting 11 7.2
2018-Feb-24 21:34 097 5 gusting 10 7.2
2018-Feb-24 21:19 046 4 gusting 12 7.2
2018-Feb-24 21:14 075 6 gusting 15 7.2
2018-Feb-24 21:09 102 7 gusting 17 7.2
2018-Feb-24 21:04 109 7 gusting 15 7.2
2018-Feb-24 20:59 110 7 gusting 15 7.2
2018-Feb-24 20:54 152 9 gusting 17 7.2
2018-Feb-24 20:49 105 10 gusting 17 7.2
2018-Feb-24 20:29 112 7 gusting 15 7.2
2018-Feb-24 20:24 089 6 gusting 12 7.8
2018-Feb-24 20:19 099 4 gusting 13 7.8
2018-Feb-24 20:14 099 6 gusting 13 7.8
2018-Feb-24 20:04 108 6 gusting 10 7.8
2018-Feb-24 19:54 109 4 gusting 8 7.8
2018-Feb-24 19:49 077 5 gusting 9 7.8
2018-Feb-24 19:39 108 3 gusting 10 7.8
2018-Feb-24 19:34 113 2 gusting 6 7.8
2018-Feb-24 19:29 121 3 7.8
2018-Feb-24 19:24 083 2 8.3
2018-Feb-24 19:18 090 1 gusting 5 8.3
2018-Feb-24 19:14 108 3 gusting 5 8.3
2018-Feb-24 19:09 092 2 8.3
2018-Feb-24 18:54 060 3 gusting 7 8.3
2018-Feb-24 18:44 057 6 gusting 10 8.3
2018-Feb-24 18:34 012 6 gusting 11 8.3
2018-Feb-24 18:29 048 5 gusting 9 8.3
2018-Feb-24 18:24 073 6 gusting 11 8.3
2018-Feb-24 18:19 025 5 gusting 11 8.3
2018-Feb-24 18:09 044 6 gusting 10 8.9
2018-Feb-24 18:04 064 5 gusting 10 8.9
2018-Feb-24 17:44 029 6 gusting 13 8.9
2018-Feb-24 17:29 055 6 gusting 13 8.9
2018-Feb-24 17:24 360 284 gusting 284 8.9
2018-Feb-24 13:29 094 6 gusting 13 9.4
2018-Feb-24 13:24 101 1 gusting 7 8.9
2018-Feb-24 13:19 312 2 gusting 5 8.9
2018-Feb-24 13:14 246 2 gusting 7 8.9
2018-Feb-24 13:09 355 6 gusting 10 8.9
2018-Feb-24 13:04 355 6 gusting 11 8.3
2018-Feb-24 12:59 277 5 gusting 12 8.3
2018-Feb-24 12:54 321 9 gusting 13 8.3
2018-Feb-24 12:49 339 8 gusting 13 8.3
2018-Feb-24 12:44 304 7 gusting 11 8.3
2018-Feb-24 12:29 319 5 gusting 13 8.3
2018-Feb-24 12:24 288 6 gusting 13 7.8
2018-Feb-24 10:39 360 6 gusting 14 16.1
2018-Feb-24 10:33 360 7 gusting 14 16.1
2018-Feb-24 10:29 322 7 gusting 13 16.1
2018-Feb-24 10:24 321 7 gusting 13 16.7
2018-Feb-24 10:19 005 6 16.7
2018-Feb-24 10:13 323 6 gusting 11 16.7
2018-Feb-24 10:09 303 284 gusting 284 16.7
2018-Feb-24 09:59 333 284 gusting 284 17.2
2018-Feb-24 09:54 360 6 16.7
2018-Feb-24 09:44 302 6 gusting 12 16.7
2018-Feb-24 09:39 290 6 gusting 12 16.7
2018-Feb-24 09:34 327 6 16.7
2018-Feb-24 09:29 309 8 gusting 13 17.2
2018-Feb-24 09:24 330 7 gusting 12 16.7
2018-Feb-24 09:19 289 6 gusting 13 16.7
2018-Feb-24 09:14 290 6 gusting 13 16.1
2018-Feb-24 09:09 290 284 gusting 284 16.7
2018-Feb-24 09:03 326 6 16.7
2018-Feb-24 08:59 310 6 gusting 13 16.1
2018-Feb-24 08:49 288 5 gusting 10 17.2
2018-Feb-24 08:44 324 4 gusting 9 16.7
2018-Feb-24 08:39 289 5 gusting 9 16.7
2018-Feb-24 08:34 350 6 gusting 9 16.7
2018-Feb-24 08:24 360 6 gusting 11 16.1
2018-Feb-24 08:19 360 4 gusting 11 16.1
2018-Feb-24 08:14 333 284 gusting 284 16.1
2018-Feb-24 08:09 290 4 gusting 10 16.1
2018-Feb-24 07:58 280 5 gusting 9 15.6
2018-Feb-24 07:49 308 284 gusting 284 15.6
2018-Feb-24 07:44 344 5 gusting 11 16.1
2018-Feb-24 07:39 279 4 gusting 9 16.1
2018-Feb-24 07:34 328 284 gusting 284 15.6
2018-Feb-24 07:29 336 2 gusting 10 15.6
2018-Feb-24 07:24 334 4 gusting 10 15.6
2018-Feb-24 07:19 290 3 gusting 9 15.6
2018-Feb-24 07:14 337 2 gusting 10 15.0
2018-Feb-24 07:09 278 6 gusting 10 15.6
2018-Feb-24 07:04 300 5 gusting 9 15.6
2018-Feb-24 06:59 277 4 gusting 10 15.6
2018-Feb-24 06:54 342 4 gusting 10 15.6
2018-Feb-24 06:49 031 5 gusting 10 15.6
2018-Feb-24 06:44 360 6 gusting 10 15.6
2018-Feb-24 06:39 290 284 gusting 284 16.1
2018-Feb-24 06:34 325 4 gusting 10 15.6
2018-Feb-24 06:29 344 5 gusting 10 16.1
2018-Feb-24 06:24 304 4 gusting 9 16.1
2018-Feb-24 06:14 279 5 gusting 8 16.7
2018-Feb-24 06:04 360 3 gusting 6 17.2
2018-Feb-24 05:59 013 0 gusting 2 18.3
2018-Feb-24 05:54 022 18.3
2018-Feb-24 05:49 022 284 gusting 284 17.8
2018-Feb-24 05:44 022 1 gusting 3 17.8
2018-Feb-24 05:39 022 0 gusting 2 17.8
2018-Feb-24 05:34 022 18.3
2018-Feb-24 05:29 022 17.8
2018-Feb-24 05:24 022 0 gusting 3 17.8
2018-Feb-24 05:19 022 2 gusting 3 17.8
2018-Feb-24 05:14 072 17.8
2018-Feb-24 05:09 074 1 gusting 5 17.8
2018-Feb-24 05:04 096 2 gusting 8 17.8
2018-Feb-24 04:59 119 3 gusting 8 17.8
2018-Feb-24 04:54 081 2 gusting 6 18.3
2018-Feb-24 04:49 101 2 gusting 6 17.8
2018-Feb-24 04:44 101 3 gusting 6 18.3
2018-Feb-24 04:39 072 5 gusting 9 17.8
2018-Feb-24 04:34 054 4 gusting 8 17.2
2018-Feb-24 04:29 067 2 gusting 6 17.2
2018-Feb-24 04:23 064 3 gusting 8 17.2
2018-Feb-24 04:19 119 4 gusting 8 17.2
2018-Feb-24 04:14 098 1 gusting 7 17.2
2018-Feb-24 04:09 134 1 gusting 7 17.2
2018-Feb-24 04:04 062 17.2
2018-Feb-24 03:59 134 0 gusting 5 17.2
2018-Feb-24 03:54 109 2 gusting 5 17.8
2018-Feb-24 03:49 125 0 gusting 6 17.2
2018-Feb-24 03:44 129 1 gusting 10 17.2
2018-Feb-24 03:39 088 6 gusting 10 17.2
2018-Feb-24 03:34 071 5 gusting 10 17.2
2018-Feb-24 03:29 067 4 gusting 9 17.2
2018-Feb-24 03:24 096 4 gusting 9 16.7
2018-Feb-24 03:19 073 3 gusting 6 16.7
2018-Feb-24 03:14 076 3 gusting 6 16.7
2018-Feb-24 03:09 140 1 gusting 5 16.7
2018-Feb-24 03:04 119 1 gusting 4 16.1
2018-Feb-24 02:59 295 16.1
2018-Feb-24 02:54 294 16.1
2018-Feb-24 02:49 295 3 gusting 6 16.1
2018-Feb-24 02:44 304 3 gusting 6 16.1
2018-Feb-24 02:39 301 0 gusting 3 16.7
2018-Feb-24 02:34 302 1 gusting 3 16.1
2018-Feb-24 02:29 289 16.1
2018-Feb-24 02:24 288 1 gusting 3 15.6
2018-Feb-24 02:19 260 15.6
2018-Feb-24 02:14 258 2 gusting 6 15.6
2018-Feb-24 02:09 103 1 gusting 5 15.6
2018-Feb-24 02:04 289 2 gusting 6 15.6
2018-Feb-24 01:54 287 3 gusting 7 15.6
2018-Feb-24 01:49 261 3 gusting 9 15.6
2018-Feb-24 01:44 313 2 gusting 9 15.0
2018-Feb-24 01:39 360 1 gusting 4 15.0
2018-Feb-24 01:34 299 0 gusting 4 15.6
2018-Feb-24 01:29 316 1 gusting 4 15.6
2018-Feb-24 01:24 311 1 gusting 5 15.0
2018-Feb-24 01:19 302 2 gusting 5 15.6
2018-Feb-24 01:14 286 1 gusting 4 15.0
2018-Feb-24 01:09 292 1 gusting 6 15.0
2018-Feb-24 01:04 284 3 gusting 6 15.0
2018-Feb-24 00:59 360 1 gusting 6 15.0
2018-Feb-24 00:54 309 3 gusting 6 15.6
2018-Feb-24 00:49 333 0 gusting 6 15.0
2018-Feb-24 00:44 304 0 gusting 6 15.0
2018-Feb-24 00:39 298 0 gusting 6 15.0
2018-Feb-24 00:34 355 2 gusting 4 15.0
2018-Feb-24 00:29 355 2 gusting 6 15.0
2018-Feb-24 00:24 296 3 gusting 6 15.0
2018-Feb-24 00:19 317 0 gusting 4 15.6
2018-Feb-24 00:14 323 1 gusting 4 15.0
2018-Feb-24 00:09 318 1 gusting 6 15.0
2018-Feb-24 00:04 311 2 gusting 7 15.0
2018-Feb-23 23:59 318 2 gusting 11 15.0
2018-Feb-23 23:54 331 4 gusting 11 14.4
2018-Feb-23 23:49 360 3 gusting 11 15.0
2018-Feb-23 23:44 288 5 gusting 11 15.0
2018-Feb-23 23:33 288 3 gusting 12 15.0
2018-Feb-23 23:29 325 6 gusting 12 15.0
2018-Feb-23 23:24 296 3 gusting 9 15.0
2018-Feb-23 23:19 312 3 gusting 8 15.0
2018-Feb-23 23:14 274 5 gusting 8 15.0
2018-Feb-23 23:09 297 4 gusting 8 15.0
2018-Feb-23 23:04 275 3 gusting 9 15.0
2018-Feb-23 22:54 293 3 gusting 8 15.0
2018-Feb-23 22:39 281 3 gusting 8 15.6
2018-Feb-23 22:34 287 2 gusting 12 15.0
2018-Feb-23 22:24 282 6 gusting 9 15.0
2018-Feb-23 22:19 260 1 gusting 6 15.0
2018-Feb-23 22:14 239 284 gusting 284 15.0
2018-Feb-23 21:59 279 6 gusting 10 14.4
2018-Feb-23 21:54 300 2 gusting 10 14.4
2018-Feb-23 21:49 298 5 gusting 10 13.9
2018-Feb-23 21:44 251 5 gusting 10 13.3
2018-Feb-23 21:39 295 6 gusting 10 13.3
2018-Feb-23 21:34 360 6 gusting 8 13.3
2018-Feb-23 21:29 294 4 gusting 10 13.3
2018-Feb-23 21:24 298 5 gusting 10 13.9
2018-Feb-23 21:14 275 6 gusting 12 12.8
2018-Feb-23 21:09 280 6 gusting 12 12.2
2018-Feb-23 21:04 278 7 gusting 13 11.1
2018-Feb-23 20:54 282 6 gusting 15 8.9
2018-Feb-23 20:48 261 9 gusting 15 8.3
2018-Feb-23 20:43 290 5 gusting 15 8.3
2018-Feb-23 20:39 273 6 gusting 15 8.3
2018-Feb-23 20:34 286 5 gusting 14 8.9
2018-Feb-23 20:29 330 6 gusting 17 8.3
2018-Feb-23 20:24 292 11 gusting 17 7.8
2018-Feb-23 20:19 292 8 gusting 15 8.3
2018-Feb-23 20:14 311 9 gusting 14 8.9
2018-Feb-23 20:09 310 9 gusting 13 8.3
2018-Feb-23 20:04 298 6 gusting 13 8.3
2018-Feb-23 19:59 256 2 gusting 12 8.3
2018-Feb-23 19:44 261 6 gusting 13 8.9
2018-Feb-23 19:39 243 7 gusting 13 10.0
2018-Feb-23 19:19 229 3 gusting 11 9.4
2018-Feb-23 19:14 240 6 gusting 9 10.0
2018-Feb-23 19:09 252 3 gusting 9 10.6
2018-Feb-23 19:04 236 2 gusting 6 12.2
2018-Feb-23 18:59 251 3 gusting 10 13.9
2018-Feb-23 18:54 283 6 gusting 15 15.0
2018-Feb-23 18:49 288 8 gusting 15 14.4
2018-Feb-23 18:43 277 4 gusting 11 15.0
2018-Feb-23 18:38 360 6 gusting 12 15.6
2018-Feb-23 18:34 360 6 gusting 12 15.6
2018-Feb-23 18:30 284 3 gusting 13 15.6
2018-Feb-23 18:24 360 6 gusting 13 15.0
2018-Feb-23 18:19 336 6 15.0
2018-Feb-23 18:14 020 5 gusting 8 15.0
2018-Feb-23 18:09 345 4 gusting 15 13.9
2018-Feb-23 18:04 015 6 gusting 15 13.9
2018-Feb-23 17:54 031 7 gusting 12 13.3
2018-Feb-23 17:49 005 6 gusting 11 12.8
2018-Feb-23 17:39 017 6 gusting 12 12.2
2018-Feb-23 17:34 009 6 gusting 12 12.2
2018-Feb-23 17:23 291 6 gusting 11 11.1
2018-Feb-23 17:09 283 1 gusting 5 11.7
2018-Feb-23 17:04 306 2 gusting 10 10.0
2018-Feb-23 16:59 300 4 gusting 10 8.9
2018-Feb-23 16:54 239 6 gusting 12 7.8
2018-Feb-23 16:49 284 6 gusting 15 7.8
2018-Feb-23 16:44 279 1 gusting 6 7.8
2018-Feb-23 16:39 250 7.2
2018-Feb-23 16:34 297 6 gusting 11 7.2
2018-Feb-23 16:29 258 3 gusting 13 7.2
2018-Feb-23 16:19 309 4 gusting 12 6.7
2018-Feb-23 16:14 245 284 gusting 284 6.7
2018-Feb-23 16:04 273 7 gusting 13 6.7
2018-Feb-23 15:59 293 5 gusting 13 7.2
2018-Feb-23 15:54 271 8 gusting 14 6.7
2018-Feb-23 15:49 317 9 gusting 15 7.2
2018-Feb-23 15:39 278 9 gusting 14 5.0
2018-Feb-23 15:34 276 5 gusting 13 5.0
2018-Feb-23 15:28 277 5 gusting 13 5.0
2018-Feb-23 15:24 264 8 gusting 13 5.0
2018-Feb-23 15:19 271 6 gusting 12 5.0
2018-Feb-23 15:14 275 8 gusting 13 5.0
2018-Feb-23 15:04 229 6 gusting 9 5.6
2018-Feb-23 14:59 301 1 gusting 8 5.0
2018-Feb-23 14:54 242 4 5.0
2018-Feb-23 14:49 259 3 gusting 9 5.0
2018-Feb-23 14:44 260 5 gusting 9 5.0
2018-Feb-23 14:39 255 3 gusting 8 5.0
2018-Feb-23 14:34 200 0 gusting 8 5.0
2018-Feb-23 14:29 178 2 gusting 9 5.0
2018-Feb-23 14:19 204 3 gusting 5 5.0
2018-Feb-23 14:14 200 2 gusting 5 5.0
2018-Feb-23 14:09 254 3 gusting 6 5.0